Algernon, Nebraska
Current Conditions -  °F | °C
As of 9:53 PM on Saturday 22 Nov 2014 (Local Time) from KBBW Reporting Station
Few Clouds Few Clouds  
Wind Chill: 45°   Ceiling: Unl
Heat Index: 49°   Visibility: 10mi
Dew Point: 32°   Wind: 10mph
Humidity: 52%   Direction: 240°WSW
Pressure: 29.5"   Gusts: NA
Location:  41.1632°N, 99.3112°W
Report Text: KBBW 230353Z AUTO 24009KT 10SM FEW110 09/00 A2950 RMK AO2 SLP990 T00940000 PWINO $
Loading
Personal Weather Stations






























Interactive Weather Map New forecast layout! Learn more

10-Day Weather Forecast

Advertisements
Track Severe Weather on mobile